Time;durP1;ratioP1;P1;durP2;ratioP2;P2;SDS_P1;SDS_P2;PMS_P1;PMS_P2;Temp;Humidity;BMP_temperature;BMP_pressure;BME280_temperature;BME280_humidity;BME280_pressure;Samples;Min_cycle;Max_cycle;Signal;HPM_P1;HPM_P2
2022/05/01 00:03:02;;;;;;;42.27;21.97;;;7.20;91.70;;;;;;10430942;28;20132;-83
2022/05/01 00:08:04;;;;;;;43.07;22.90;;;7.10;93.10;;;;;;10443546;28;20017;-83
2022/05/01 00:13:04;;;;;;;38.70;20.43;;;7.20;92.20;;;;;;10419037;28;20029;-85
2022/05/01 00:18:05;;;;;;;42.23;22.13;;;7.60;91.30;;;;;;10441896;28;20049;-83
2022/05/01 00:23:06;;;;;;;37.40;21.00;;;7.80;90.60;;;;;;10419609;28;20057;-83
2022/05/01 00:28:07;;;;;;;41.20;21.47;;;7.80;90.10;;;;;;10444856;28;20167;-82
2022/05/01 00:38:27;;;;;;;40.70;21.17;;;7.80;90.10;;;;;;10454122;28;20503;-83
2022/05/01 00:43:28;;;;;;;43.93;22.80;;;7.90;89.70;;;;;;10433944;28;20025;-81
2022/05/01 00:48:28;;;;;;;42.13;23.03;;;7.80;89.90;;;;;;10417863;28;20113;-82
2022/05/01 00:53:29;;;;;;;46.20;23.93;;;7.70;90.40;;;;;;10411755;28;20112;-82
2022/05/01 00:58:30;;;;;;;46.20;24.50;;;7.70;90.40;;;;;;10427352;28;20106;-83
2022/05/01 01:03:30;;;;;;;41.87;23.53;;;7.70;90.60;;;;;;10451709;28;20031;-84
2022/05/01 01:08:32;;;;;;;42.40;23.07;;;7.70;90.60;;;;;;10419929;28;20036;-83
2022/05/01 01:13:33;;;;;;;41.47;22.93;;;7.60;90.40;;;;;;10452645;28;20112;-85
2022/05/01 01:18:34;;;;;;;43.10;24.47;;;7.60;90.70;;;;;;10425118;28;20144;-83
2022/05/01 01:23:34;;;;;;;38.93;22.17;;;7.50;91.80;;;;;;10452407;28;20135;-84
2022/05/01 01:28:37;;;;;;;43.83;23.37;;;7.30;91.70;;;;;;10412111;28;20040;-84
2022/05/01 01:33:38;;;;;;;43.73;23.40;;;7.30;91.90;;;;;;10422341;28;20048;-83
2022/05/01 01:38:40;;;;;;;40.07;23.47;;;7.40;92.40;;;;;;10394570;28;20129;-84
2022/05/01 01:43:42;;;;;;;43.27;22.87;;;7.30;92.80;;;;;;10450085;28;20036;-84
2022/05/01 01:48:45;;;;;;;41.50;22.47;;;7.20;93.70;;;;;;10444054;28;20691;-83
2022/05/01 01:53:45;;;;;;;36.40;20.77;;;7.10;94.30;;;;;;10391684;28;20047;-85
2022/05/01 01:58:46;;;;;;;40.30;21.30;;;7.10;93.80;;;;;;10450710;28;20039;-84
2022/05/01 02:03:47;;;;;;;37.10;22.23;;;7.10;94.00;;;;;;10419375;28;20397;-83
2022/05/01 02:08:47;;;;;;;41.43;22.27;;;7.10;94.20;;;;;;10430136;28;20108;-83
2022/05/01 02:13:48;;;;;;;38.07;21.37;;;7.10;94.70;;;;;;10429185;28;20719;-83
2022/05/01 02:18:49;;;;;;;37.80;20.80;;;7.00;95.20;;;;;;10420003;28;20492;-82
2022/05/01 02:23:49;;;;;;;38.53;21.77;;;7.00;95.80;;;;;;10391097;28;20064;-83
2022/05/01 02:28:50;;;;;;;35.67;20.97;;;6.90;97.10;;;;;;10419370;28;20063;-82
2022/05/01 02:33:50;;;;;;;39.70;22.13;;;6.80;98.20;;;;;;10401822;28;20103;-83
2022/05/01 02:38:51;;;;;;;38.27;21.67;;;6.80;98.30;;;;;;10408004;28;20029;-82
2022/05/01 02:43:52;;;;;;;36.83;22.03;;;6.80;98.70;;;;;;10407842;28;20064;-83
2022/05/01 02:48:52;;;;;;;37.87;21.73;;;6.70;99.90;;;;;;10403422;28;20728;-83
2022/05/01 02:53:54;;;;;;;40.83;22.47;;;6.70;99.70;;;;;;10407612;28;20045;-83
2022/05/01 02:58:55;;;;;;;40.77;22.77;;;6.70;99.30;;;;;;10411370;28;20021;-84
2022/05/01 03:03:56;;;;;;;36.13;21.03;;;6.70;99.40;;;;;;10428363;28;20036;-83
2022/05/01 03:08:56;;;;;;;39.53;22.47;;;6.80;99.20;;;;;;10443808;28;20472;-83
2022/05/01 03:13:57;;;;;;;41.17;22.97;;;6.80;99.20;;;;;;10427721;28;20392;-86
2022/05/01 03:24:18;;;;;;;40.07;22.97;;;6.80;99.40;;;;;;10433594;28;20085;-84
2022/05/01 03:29:19;;;;;;;39.20;22.37;;;6.80;99.90;;;;;;10443624;28;20123;-85
2022/05/01 03:34:20;;;;;;;34.03;20.40;;;6.80;99.90;;;;;;10420744;28;20091;-86
2022/05/01 03:39:21;;;;;;;40.60;23.63;;;6.80;99.90;;;;;;10451370;28;20053;-85
2022/05/01 03:44:22;;;;;;;35.17;21.50;;;6.80;99.90;;;;;;10421809;28;20450;-84
2022/05/01 03:49:22;;;;;;;38.63;22.93;;;6.90;99.90;;;;;;10426753;28;20029;-86
2022/05/01 03:54:24;;;;;;;38.30;22.77;;;6.90;99.90;;;;;;10420623;28;20028;-84
2022/05/01 03:59:24;;;;;;;36.93;23.60;;;6.90;99.90;;;;;;10436169;28;20500;-85
2022/05/01 04:04:25;;;;;;;39.73;23.67;;;6.90;99.90;;;;;;10396322;28;20032;-85
2022/05/01 04:09:28;;;;;;;39.77;22.60;;;6.90;99.90;;;;;;10428999;28;20036;-85
2022/05/01 04:14:29;;;;;;;39.40;23.77;;;7.00;99.90;;;;;;10423483;28;20056;-85
2022/05/01 04:19:29;;;;;;;38.03;23.03;;;7.00;99.90;;;;;;10426655;28;20040;-85
2022/05/01 04:24:30;;;;;;;37.70;22.53;;;7.00;99.90;;;;;;10418896;28;20084;-83
2022/05/01 04:29:36;;;;;;;40.03;22.53;;;7.10;99.90;;;;;;10427247;28;20465;-85
2022/05/01 04:34:37;;;;;;;42.73;22.47;;;7.10;99.90;;;;;;10439381;28;20073;-86
2022/05/01 04:39:37;;;;;;;40.97;23.60;;;7.20;99.90;;;;;;10418359;28;20112;-85
2022/05/01 04:44:38;;;;;;;40.27;21.93;;;7.20;99.90;;;;;;10433610;28;20541;-85
2022/05/01 04:49:39;;;;;;;38.07;23.43;;;7.30;99.90;;;;;;10436002;28;20116;-85
2022/05/01 04:54:39;;;;;;;37.43;22.97;;;7.50;99.90;;;;;;10440267;28;20439;-86
2022/05/01 04:59:40;;;;;;;40.77;22.83;;;7.60;99.90;;;;;;10453511;28;20027;-85
2022/05/01 05:04:41;;;;;;;33.90;21.20;;;7.80;99.40;;;;;;10434724;28;20040;-85
2022/05/01 05:09:54;;;;;;;35.23;21.93;;;8.00;99.00;;;;;;10434548;28;20035;-85
2022/05/01 05:14:58;;;;;;;33.77;21.43;;;8.20;98.20;;;;;;10421336;28;20059;-85
2022/05/01 05:20:00;;;;;;;27.40;17.83;;;8.40;99.20;;;;;;10428465;28;20548;-86
2022/05/01 05:25:01;;;;;;;30.33;18.30;;;8.70;98.60;;;;;;10452226;28;20102;-85
2022/05/01 05:30:03;;;;;;;26.53;16.63;;;9.10;97.20;;;;;;10418571;28;20044;-83
2022/05/01 05:35:04;;;;;;;24.57;16.77;;;9.60;94.90;;;;;;10429535;28;20048;-89
2022/05/01 05:40:06;;;;;;;29.63;16.67;;;10.00;92.90;;;;;;10409983;28;20482;-84
2022/05/01 05:45:07;;;;;;;29.10;16.40;;;10.30;90.80;;;;;;10431565;28;20029;-84
2022/05/01 05:50:09;;;;;;;28.80;16.37;;;10.70;88.00;;;;;;10413332;28;20029;-84
2022/05/01 05:55:09;;;;;;;27.08;16.02;;;11.10;86.60;;;;;;10443466;28;20041;-85
2022/05/01 06:00:10;;;;;;;24.52;14.93;;;11.40;86.10;;;;;;10436697;28;20040;-84
2022/05/01 06:05:11;;;;;;;27.90;15.13;;;11.60;82.40;;;;;;10435856;28;20033;-84
2022/05/01 06:10:15;;;;;;;25.83;13.85;;;11.80;81.40;;;;;;10410423;28;20412;-85
2022/05/01 06:15:15;;;;;;;23.83;13.57;;;12.10;81.40;;;;;;10420901;28;20056;-84
2022/05/01 06:20:16;;;;;;;19.58;12.30;;;12.40;79.40;;;;;;10428730;28;20040;-84
2022/05/01 06:25:17;;;;;;;20.15;12.25;;;12.70;78.20;;;;;;10435812;28;20018;-84
2022/05/01 06:30:18;;;;;;;16.52;10.90;;;13.10;78.10;;;;;;10427308;28;20033;-85
2022/05/01 06:35:19;;;;;;;17.30;10.82;;;13.40;76.70;;;;;;10418640;28;20382;-81
2022/05/01 06:40:19;;;;;;;17.08;10.98;;;13.70;76.30;;;;;;10432784;28;20032;-83
2022/05/01 06:45:20;;;;;;;15.10;9.90;;;14.10;73.90;;;;;;10438767;28;20529;-83
2022/05/01 06:50:21;;;;;;;15.43;10.65;;;14.40;73.50;;;;;;10420411;28;20029;-82
2022/05/01 06:55:25;;;;;;;13.93;9.27;;;14.70;75.00;;;;;;10424445;28;20724;-80
2022/05/01 07:00:26;;;;;;;14.48;8.95;;;14.90;71.50;;;;;;10436031;28;20082;-82
2022/05/01 07:05:27;;;;;;;14.15;9.60;;;15.20;71.30;;;;;;10439695;28;20546;-82
2022/05/01 07:10:28;;;;;;;12.40;9.02;;;15.50;71.60;;;;;;10438098;28;20508;-85
2022/05/01 07:15:28;;;;;;;13.15;8.77;;;16.20;69.10;;;;;;10445915;28;20067;-81
2022/05/01 07:20:30;;;;;;;12.52;9.18;;;16.60;66.70;;;;;;10443028;28;20071;-81
2022/05/01 07:25:31;;;;;;;14.10;9.40;;;16.60;66.00;;;;;;10441747;28;20112;-83
2022/05/01 07:30:32;;;;;;;15.70;9.68;;;16.40;64.60;;;;;;10440141;28;20013;-80
2022/05/01 07:35:32;;;;;;;13.23;8.85;;;16.40;64.80;;;;;;10444344;28;20384;-83
2022/05/01 07:40:33;;;;;;;16.70;10.80;;;16.50;65.70;;;;;;10439510;28;20107;-84
2022/05/01 07:45:34;;;;;;;13.68;9.77;;;16.90;67.40;;;;;;10442252;28;20099;-86
2022/05/01 07:50:35;;;;;;;15.77;9.25;;;17.40;64.30;;;;;;10436524;28;20078;-87
2022/05/01 07:55:35;;;;;;;11.40;8.23;;;17.70;62.00;;;;;;10411990;28;20033;-82
2022/05/01 08:00:36;;;;;;;11.15;8.95;;;17.90;62.20;;;;;;10421559;28;20025;-86
2022/05/01 08:05:37;;;;;;;8.98;7.30;;;18.20;64.60;;;;;;10397516;28;20199;-83
2022/05/01 08:10:37;;;;;;;12.27;8.32;;;18.70;63.00;;;;;;10435105;28;20060;-85
2022/05/01 08:15:38;;;;;;;12.10;7.57;;;18.80;61.10;;;;;;10429202;28;20120;-82
2022/05/01 08:26:04;;;;;;;8.50;6.10;;;19.10;60.10;;;;;;10427504;28;20037;-84
2022/05/01 08:31:06;;;;;;;8.40;6.03;;;19.40;57.00;;;;;;10427153;28;20025;-84
2022/05/01 08:36:07;;;;;;;12.18;6.78;;;19.50;59.80;;;;;;10419823;28;20119;-83
2022/05/01 08:41:08;;;;;;;9.10;6.32;;;19.90;56.20;;;;;;10434845;28;20062;-83
2022/05/01 08:46:38;;;;;;;9.95;5.80;;;19.80;56.50;;;;;;10435271;28;20033;-81
2022/05/01 08:51:41;;;;;;;8.35;6.30;;;20.20;56.30;;;;;;10435519;28;20025;-83
2022/05/01 08:56:43;;;;;;;8.82;5.78;;;20.50;56.40;;;;;;10415243;28;20389;-83
2022/05/01 09:01:45;;;;;;;7.18;5.47;;;20.80;54.30;;;;;;10402631;28;20029;-85
2022/05/01 09:06:50;;;;;;;9.65;6.00;;;21.10;53.20;;;;;;10432257;28;20063;-85
2022/05/01 09:17:23;;;;;;;8.13;5.78;;;21.50;52.10;;;;;;10431559;28;20493;-85
2022/05/01 09:22:24;;;;;;;9.40;5.63;;;21.40;53.10;;;;;;10434601;28;20080;-83
2022/05/01 09:27:30;;;;;;;7.65;5.32;;;21.50;50.40;;;;;;10440452;28;20033;-83
2022/05/01 09:32:39;;;;;;;7.88;5.05;;;21.80;51.50;;;;;;10426296;28;20713;-84
2022/05/01 09:37:39;;;;;;;14.40;7.72;;;22.00;51.30;;;;;;10421518;28;21227;-83
2022/05/01 09:42:40;;;;;;;7.13;5.10;;;22.10;49.90;;;;;;10421077;28;20202;-84
2022/05/01 09:47:44;;;;;;;7.78;5.75;;;22.00;49.80;;;;;;10414340;28;20029;-84
2022/05/01 09:53:01;;;;;;;7.07;4.72;;;21.60;48.70;;;;;;10433906;28;20155;-84
2022/05/01 09:58:09;;;;;;;7.10;5.10;;;21.50;52.80;;;;;;10418383;28;20129;-84
2022/05/01 10:03:33;;;;;;;10.75;5.20;;;21.20;50.70;;;;;;10419478;28;20037;-84
2022/05/01 10:08:36;;;;;;;9.60;5.32;;;20.60;51.20;;;;;;10430977;28;20354;-83
2022/05/01 10:13:38;;;;;;;10.82;7.30;;;20.50;51.30;;;;;;10420979;28;20040;-85
2022/05/01 10:18:39;;;;;;;6.63;5.55;;;20.40;51.90;;;;;;10414068;28;20083;-85
2022/05/01 10:23:40;;;;;;;8.77;5.45;;;20.90;50.80;;;;;;10418770;28;20034;-84
2022/05/01 10:29:06;;;;;;;6.35;5.03;;;21.20;52.90;;;;;;10415024;28;20025;-87
2022/05/01 10:34:25;;;;;;;12.13;8.23;;;21.70;53.20;;;;;;10426139;28;20049;-85
2022/05/01 10:39:34;;;;;;;6.18;4.65;;;21.80;53.90;;;;;;10423877;28;20136;-85
2022/05/01 10:44:37;;;;;;;7.25;4.65;;;21.90;53.70;;;;;;10444386;28;20033;-84
2022/05/01 10:49:41;;;;;;;7.32;5.18;;;21.60;50.00;;;;;;10436547;28;20065;-86
2022/05/01 10:55:07;;;;;;;10.38;5.43;;;21.10;50.30;;;;;;10415491;28;20033;-86
2022/05/01 11:00:15;;;;;;;7.68;4.75;;;21.10;49.00;;;;;;10426488;28;20584;-83
2022/05/01 11:05:42;;;;;;;6.80;4.30;;;21.00;49.10;;;;;;10421593;28;20101;-84
2022/05/01 11:10:44;;;;;;;7.50;4.20;;;21.30;49.70;;;;;;10435055;28;20053;-84
2022/05/01 11:15:47;;;;;;;7.97;4.68;;;21.20;51.20;;;;;;10413076;28;20077;-84
2022/05/01 11:20:48;;;;;;;6.72;4.97;;;21.30;51.80;;;;;;10428394;28;20037;-84
2022/05/01 11:25:48;;;;;;;9.48;5.47;;;20.90;49.90;;;;;;10407263;28;20029;-83
2022/05/01 11:30:51;;;;;;;5.85;4.28;;;20.40;49.70;;;;;;10418833;28;20028;-85
2022/05/01 11:36:01;;;;;;;5.38;4.47;;;20.40;51.90;;;;;;10406701;28;20763;-83
2022/05/01 11:41:03;;;;;;;7.03;4.60;;;20.40;53.00;;;;;;10424454;28;20038;-84
2022/05/01 11:46:16;;;;;;;6.70;5.03;;;20.70;50.90;;;;;;10425005;28;20022;-84
2022/05/01 11:51:18;;;;;;;5.97;4.40;;;20.70;52.10;;;;;;10410939;28;20046;-86
2022/05/01 12:07:16;;;;;;;8.88;4.90;;;20.90;50.20;;;;;;10423625;28;20198;-85
2022/05/01 12:12:44;;;;;;;7.25;4.72;;;21.00;51.30;;;;;;10415151;28;20195;-85
2022/05/01 12:18:21;;;;;;;6.55;4.70;;;20.90;51.50;;;;;;10431359;28;20472;-84
2022/05/01 12:23:22;;;;;;;7.63;5.10;;;21.10;52.50;;;;;;10436785;28;20120;-84
2022/05/01 12:28:27;;;;;;;6.93;5.03;;;21.70;53.80;;;;;;10419139;28;20082;-85
2022/05/01 12:33:27;;;;;;;7.35;4.70;;;22.10;51.40;;;;;;10435845;28;20110;-88
2022/05/01 12:38:29;;;;;;;6.28;4.70;;;22.30;51.60;;;;;;10444359;28;20056;-86
2022/05/01 12:48:50;;;;;;;10.73;7.28;;;22.50;49.70;;;;;;10430054;28;20406;-85
2022/05/01 12:54:10;;;;;;;10.52;6.82;;;22.40;51.80;;;;;;10397099;28;20034;-83
2022/05/01 12:59:27;;;;;;;6.65;4.60;;;22.30;52.10;;;;;;10425578;28;20029;-86
2022/05/01 13:04:33;;;;;;;7.50;4.95;;;21.50;46.20;;;;;;10412276;28;20046;-86
2022/05/01 13:09:51;;;;;;;13.07;10.43;;;20.80;47.80;;;;;;10395090;28;20540;-86
2022/05/01 13:15:04;;;;;;;5.65;4.78;;;20.70;51.60;;;;;;10400349;28;20057;-85
2022/05/01 13:20:08;;;;;;;7.70;5.40;;;21.10;49.30;;;;;;10405246;28;20022;-88
2022/05/01 13:25:14;;;;;;;5.93;4.60;;;21.20;48.20;;;;;;10413246;28;20040;-89
2022/05/01 13:30:15;;;;;;;8.88;4.40;;;20.90;48.10;;;;;;10418931;28;20128;-85
2022/05/01 13:35:15;;;;;;;8.20;4.47;;;20.80;50.20;;;;;;10417904;28;20043;-85
2022/05/01 13:45:49;;;;;;;5.88;4.57;;;21.30;50.50;;;;;;10376153;28;20100;-86
2022/05/01 13:50:52;;;;;;;5.57;4.65;;;21.50;51.60;;;;;;10413366;28;20560;-85
2022/05/01 13:55:53;;;;;;;6.53;4.72;;;21.60;49.90;;;;;;10406794;28;20041;-86
2022/05/01 14:00:54;;;;;;;9.18;4.82;;;21.10;48.90;;;;;;10422362;28;20563;-84
2022/05/01 14:05:54;;;;;;;6.85;4.15;;;20.80;51.80;;;;;;10384001;28;20049;-84
2022/05/01 14:10:55;;;;;;;5.57;4.18;;;20.50;53.10;;;;;;10413462;28;20581;-86
2022/05/01 14:15:56;;;;;;;6.68;4.40;;;20.20;51.40;;;;;;10416635;28;20044;-86
2022/05/01 14:20:58;;;;;;;6.30;4.15;;;19.80;53.20;;;;;;10425108;28;20058;-84
2022/05/01 14:26:00;;;;;;;9.82;6.40;;;19.50;53.10;;;;;;10420983;28;20029;-84
2022/05/01 14:31:08;;;;;;;23.80;11.10;;;19.40;52.90;;;;;;10420953;28;20032;-85
2022/05/01 14:36:29;;;;;;;7.75;4.40;;;19.40;54.10;;;;;;10424519;28;20025;-84
2022/05/01 14:41:40;;;;;;;6.53;4.57;;;19.50;51.80;;;;;;10429115;28;20029;-84
2022/05/01 14:47:04;;;;;;;5.40;3.88;;;19.50;51.90;;;;;;10433852;28;20489;-84
2022/05/01 14:52:11;;;;;;;6.55;4.43;;;19.50;51.50;;;;;;10415712;28;20045;-85
2022/05/01 14:57:16;;;;;;;5.68;3.97;;;19.60;52.90;;;;;;10415269;28;20046;-84
2022/05/01 15:07:44;;;;;;;5.22;4.25;;;19.50;52.80;;;;;;10419750;28;20045;-84
2022/05/01 15:12:44;;;;;;;5.75;4.25;;;19.50;51.60;;;;;;10420911;28;20041;-83
2022/05/01 15:17:53;;;;;;;9.23;4.95;;;19.40;51.50;;;;;;10423176;28;20061;-84
2022/05/01 15:23:18;;;;;;;4.85;4.00;;;19.50;50.20;;;;;;10422596;28;20500;-86
2022/05/01 15:28:19;;;;;;;6.38;4.53;;;19.50;50.50;;;;;;10428216;28;20483;-84
2022/05/01 15:38:35;;;;;;;6.53;4.53;;;19.60;51.10;;;;;;10436835;28;20045;-84
2022/05/01 15:43:39;;;;;;;5.50;4.10;;;19.40;50.80;;;;;;10422088;28;20132;-84
2022/05/01 15:54:01;;;;;;;6.53;4.55;;;18.90;52.70;;;;;;10425377;28;20049;-83
2022/05/01 15:59:06;;;;;;;10.38;4.97;;;18.60;52.20;;;;;;10422166;28;20033;-84
2022/05/01 16:04:07;;;;;;;8.80;5.00;;;18.50;53.60;;;;;;10425874;28;20064;-85
2022/05/01 16:09:13;;;;;;;8.68;5.53;;;18.40;54.30;;;;;;10441323;28;20076;-86
2022/05/01 16:14:22;;;;;;;9.85;5.15;;;18.30;54.30;;;;;;10413038;28;20436;-85
2022/05/01 16:19:38;;;;;;;7.80;4.88;;;18.30;56.90;;;;;;10420632;28;20064;-86
2022/05/01 16:24:45;;;;;;;14.05;10.38;;;18.10;55.20;;;;;;10429992;28;20061;-86
2022/05/01 16:30:08;;;;;;;9.98;6.35;;;18.00;54.50;;;;;;10401215;28;20048;-89
2022/05/01 16:35:11;;;;;;;9.82;6.38;;;17.80;60.00;;;;;;10425550;28;20481;-87
2022/05/01 16:40:21;;;;;;;7.80;5.22;;;17.70;57.70;;;;;;10428538;28;20089;-87
2022/05/01 16:45:28;;;;;;;7.38;5.50;;;17.60;58.70;;;;;;10438459;28;20376;-85
2022/05/01 16:50:31;;;;;;;9.40;6.07;;;17.50;61.90;;;;;;10425348;28;20033;-84
2022/05/01 16:55:39;;;;;;;9.52;5.95;;;17.40;61.10;;;;;;10413773;28;20591;-85
2022/05/01 17:00:40;;;;;;;8.18;5.03;;;17.20;64.60;;;;;;10400280;28;20127;-84
2022/05/01 17:05:54;;;;;;;7.47;6.03;;;16.90;67.20;;;;;;10445540;28;20407;-85
2022/05/01 17:11:20;;;;;;;8.73;6.90;;;16.70;68.10;;;;;;10444523;28;20484;-84
2022/05/01 17:16:46;;;;;;;10.85;6.78;;;16.50;69.90;;;;;;10441488;28;20085;-84
2022/05/01 17:21:56;;;;;;;;;;;16.20;69.00;;;;;;10444003;28;20028;-85
2022/05/01 17:27:00;;;;;;;11.77;7.40;;;16.00;70.20;;;;;;10437320;28;20203;-84
2022/05/01 17:32:03;;;;;;;15.32;8.82;;;15.80;70.40;;;;;;10422908;28;20494;-84
2022/05/01 17:37:13;;;;;;;14.48;8.45;;;15.60;70.80;;;;;;10443566;28;20029;-86
2022/05/01 17:42:14;;;;;;;8.82;5.60;;;15.60;68.10;;;;;;10417031;28;20029;-84
2022/05/01 17:47:16;;;;;;;9.10;5.78;;;15.60;63.70;;;;;;10424114;28;20029;-85
2022/05/01 17:52:18;;;;;;;7.32;5.68;;;15.70;64.60;;;;;;10441468;28;20131;-85
2022/05/01 17:57:19;;;;;;;9.23;5.70;;;15.80;64.80;;;;;;10441134;28;20037;-85
2022/05/01 18:02:43;;;;;;;10.88;6.68;;;15.70;66.90;;;;;;10416367;28;20041;-84
2022/05/01 18:14:08;;;;;;;11.23;6.75;;;15.30;68.10;;;;;;10424283;28;20120;-89
2022/05/01 18:19:11;;;;;;;18.47;9.73;;;15.20;68.50;;;;;;10335865;28;20055;-84
2022/05/01 18:24:12;;;;;;;30.67;17.98;;;15.20;68.30;;;;;;10426693;28;20447;-85
2022/05/01 18:30:13;;;;;;;34.72;18.70;;;15.10;68.10;;;;;;10430371;28;20026;-87
2022/05/01 18:35:44;;;;;;;27.35;17.13;;;15.00;69.00;;;;;;10405084;28;20060;-87
2022/05/01 18:41:02;;;;;;;23.02;13.27;;;14.90;68.50;;;;;;10433756;28;20373;-86
2022/05/01 18:46:29;;;;;;;23.98;14.30;;;14.90;69.80;;;;;;10419067;28;20045;-85
2022/05/01 18:51:55;;;;;;;21.58;12.73;;;14.80;71.20;;;;;;10429101;28;20053;-84
2022/05/01 18:56:56;;;;;;;36.80;17.48;;;14.60;71.80;;;;;;10434720;28;20037;-84
2022/05/01 19:02:00;;;;;;;49.47;26.33;;;14.50;72.20;;;;;;10410321;28;20048;-85
2022/05/01 19:07:04;;;;;;;40.60;22.30;;;14.40;71.90;;;;;;10439133;28;20059;-85
2022/05/01 19:12:31;;;;;;;25.35;14.93;;;14.20;71.70;;;;;;10432201;28;20033;-86
2022/05/01 19:17:37;;;;;;;21.95;13.10;;;14.10;72.80;;;;;;10423863;28;20080;-84
2022/05/01 19:23:09;;;;;;;20.95;12.27;;;14.10;73.40;;;;;;10424450;28;20045;-84
2022/05/01 19:28:31;;;;;;;20.98;12.07;;;13.90;73.70;;;;;;10418588;28;20138;-84
2022/05/01 19:33:51;;;;;;;15.98;10.05;;;13.60;73.30;;;;;;10431786;28;20044;-85
2022/05/01 19:39:21;;;;;;;16.70;10.00;;;13.50;73.70;;;;;;10445107;28;20029;-84
2022/05/01 19:44:36;;;;;;;16.52;10.52;;;13.30;73.60;;;;;;10440653;28;20029;-84
2022/05/01 19:55:26;;;;;;;16.50;9.88;;;13.20;76.30;;;;;;10441972;28;20032;-83
2022/05/01 20:00:37;;;;;;;21.77;12.35;;;13.10;75.60;;;;;;10432110;28;20029;-84
2022/05/01 20:05:40;;;;;;;26.00;15.43;;;13.00;75.50;;;;;;10423908;28;20032;-83
2022/05/01 20:10:41;;;;;;;30.67;16.98;;;12.90;76.20;;;;;;10441114;28;20028;-84
2022/05/01 20:16:00;;;;;;;37.60;21.95;;;12.90;76.50;;;;;;10417125;28;20068;-84
2022/05/01 20:21:16;;;;;;;44.88;24.73;;;12.90;75.90;;;;;;10438868;28;20057;-84
2022/05/01 20:26:26;;;;;;;38.63;20.30;;;13.00;76.70;;;;;;10424292;28;20407;-83
2022/05/01 20:31:37;;;;;;;32.25;19.67;;;12.90;76.80;;;;;;10435691;28;20503;-84
2022/05/01 20:37:18;;;;;;;26.35;15.98;;;12.90;77.40;;;;;;10417648;28;20029;-83
2022/05/01 20:42:56;;;;;;;23.67;14.60;;;12.80;77.90;;;;;;10437319;28;20056;-84
2022/05/01 20:48:04;;;;;;;19.38;13.55;;;12.90;78.00;;;;;;10436525;28;20025;-84
2022/05/01 20:53:15;;;;;;;21.77;13.52;;;12.80;78.20;;;;;;10416906;28;20038;-84
2022/05/01 20:58:17;;;;;;;21.83;13.15;;;12.80;77.80;;;;;;10433900;28;20613;-83
2022/05/01 21:03:21;;;;;;;24.10;12.88;;;12.90;77.30;;;;;;10424328;28;20021;-84
2022/05/01 21:08:23;;;;;;;24.38;13.45;;;12.90;77.30;;;;;;10433307;28;20025;-83
2022/05/01 21:13:25;;;;;;;20.63;12.77;;;13.00;76.70;;;;;;10428709;28;20118;-83
2022/05/01 21:18:25;;;;;;;19.33;12.23;;;13.10;77.70;;;;;;10417638;28;20456;-83
2022/05/01 21:23:26;;;;;;;23.63;15.20;;;13.00;77.30;;;;;;10430396;28;20021;-84
2022/05/01 21:33:46;;;;;;;20.95;14.02;;;13.00;78.50;;;;;;10432517;28;20040;-84
2022/05/01 21:38:46;;;;;;;21.13;13.68;;;12.80;79.70;;;;;;10427884;28;20029;-84
2022/05/01 21:43:47;;;;;;;21.65;14.07;;;12.50;79.70;;;;;;10435084;28;20112;-84
2022/05/01 21:48:48;;;;;;;23.10;14.85;;;12.50;79.10;;;;;;10423213;28;20029;-84
2022/05/01 21:53:49;;;;;;;26.08;15.95;;;12.60;78.70;;;;;;10424303;28;20037;-83
2022/05/01 21:58:50;;;;;;;29.92;17.48;;;12.60;79.10;;;;;;10441385;28;20032;-83
2022/05/01 22:03:51;;;;;;;31.42;20.23;;;12.60;79.50;;;;;;10440995;28;20690;-84
2022/05/01 22:08:53;;;;;;;41.03;23.88;;;12.60;78.70;;;;;;10435393;28;20033;-83
2022/05/01 22:13:53;;;;;;;37.45;22.60;;;12.70;77.30;;;;;;10436685;28;20099;-83
2022/05/01 22:18:54;;;;;;;41.20;25.45;;;12.70;79.80;;;;;;10428209;28;20056;-84
2022/05/01 22:23:55;;;;;;;42.22;23.90;;;12.40;81.40;;;;;;10425598;28;20037;-84
2022/05/01 22:28:56;;;;;;;42.58;25.02;;;12.30;80.80;;;;;;10425320;28;20029;-85
2022/05/01 22:33:57;;;;;;;36.08;21.75;;;12.20;82.20;;;;;;10420246;28;20042;-84
2022/05/01 22:38:58;;;;;;;39.78;23.45;;;12.00;82.00;;;;;;10431979;28;20029;-84
2022/05/01 22:43:58;;;;;;;39.72;23.23;;;12.00;81.10;;;;;;10435084;28;20036;-84
2022/05/01 22:48:59;;;;;;;34.30;20.73;;;11.90;81.40;;;;;;10427375;28;20800;-83
2022/05/01 22:54:00;;;;;;;34.33;20.23;;;11.90;81.30;;;;;;10436671;28;20045;-84
2022/05/01 22:59:03;;;;;;;29.13;18.08;;;11.80;81.80;;;;;;10426322;28;20025;-83
2022/05/01 23:04:04;;;;;;;34.17;21.10;;;11.80;82.00;;;;;;10440990;28;20038;-84
2022/05/01 23:09:04;;;;;;;31.85;19.23;;;11.60;84.10;;;;;;10433465;28;20037;-84
2022/05/01 23:14:05;;;;;;;30.58;19.02;;;11.40;83.80;;;;;;10435911;28;20126;-84
2022/05/01 23:19:05;;;;;;;27.53;16.27;;;11.40;84.20;;;;;;10436371;28;20033;-84
2022/05/01 23:24:07;;;;;;;27.27;16.57;;;11.40;84.20;;;;;;10440470;28;20041;-84
2022/05/01 23:29:07;;;;;;;24.83;15.68;;;11.20;84.40;;;;;;10425744;28;20448;-84
2022/05/01 23:34:08;;;;;;;27.02;16.88;;;11.30;83.90;;;;;;10427756;28;20037;-84
2022/05/01 23:39:08;;;;;;;27.02;16.50;;;11.40;83.00;;;;;;10441073;28;20484;-84
2022/05/01 23:44:09;;;;;;;27.50;15.52;;;11.50;81.90;;;;;;10430651;28;20396;-84
2022/05/01 23:49:09;;;;;;;25.27;14.93;;;11.50;81.20;;;;;;10432698;28;20041;-85
2022/05/01 23:54:10;;;;;;;27.50;15.80;;;11.60;79.20;;;;;;10432419;28;20045;-85
2022/05/01 23:59:11;;;;;;;24.40;14.43;;;11.50;79.00;;;;;;10415055;28;20025;-84
